sensor_id;sensor_type;location;lat;lon;timestamp;P1;durP1;ratioP1;P2;durP2;ratioP2
57947;SDS011;43754;56.992;24.292;2022-07-22T00:02:24;8.57;;;7.07;;
57947;SDS011;43754;56.992;24.292;2022-07-22T00:04:56;12.00;;;7.13;;
57947;SDS011;43754;56.992;24.292;2022-07-22T00:07:28;8.60;;;7.72;;
57947;SDS011;43754;56.992;24.292;2022-07-22T00:10:00;10.35;;;7.57;;
57947;SDS011;43754;56.992;24.292;2022-07-22T00:12:32;13.60;;;8.07;;
57947;SDS011;43754;56.992;24.292;2022-07-22T00:15:07;11.75;;;7.20;;
57947;SDS011;43754;56.992;24.292;2022-07-22T00:17:41;11.48;;;7.60;;
57947;SDS011;43754;56.992;24.292;2022-07-22T00:20:13;11.98;;;8.27;;
57947;SDS011;43754;56.992;24.292;2022-07-22T00:22:45;10.20;;;7.55;;
57947;SDS011;43754;56.992;24.292;2022-07-22T00:25:17;13.23;;;7.78;;
57947;SDS011;43754;56.992;24.292;2022-07-22T00:27:49;9.68;;;8.40;;
57947;SDS011;43754;56.992;24.292;2022-07-22T00:30:23;10.95;;;7.30;;
57947;SDS011;43754;56.992;24.292;2022-07-22T00:32:55;10.00;;;7.82;;
57947;SDS011;43754;56.992;24.292;2022-07-22T00:35:27;8.85;;;7.22;;
57947;SDS011;43754;56.992;24.292;2022-07-22T00:37:59;12.40;;;7.85;;
57947;SDS011;43754;56.992;24.292;2022-07-22T00:40:31;10.05;;;6.85;;
57947;SDS011;43754;56.992;24.292;2022-07-22T00:43:03;9.55;;;7.57;;
57947;SDS011;43754;56.992;24.292;2022-07-22T00:45:37;11.60;;;7.65;;
57947;SDS011;43754;56.992;24.292;2022-07-22T00:48:09;12.75;;;7.75;;
57947;SDS011;43754;56.992;24.292;2022-07-22T00:50:42;8.23;;;7.05;;
57947;SDS011;43754;56.992;24.292;2022-07-22T00:53:16;9.20;;;7.57;;
57947;SDS011;43754;56.992;24.292;2022-07-22T00:55:48;9.25;;;7.38;;
57947;SDS011;43754;56.992;24.292;2022-07-22T00:58:20;14.60;;;8.10;;
57947;SDS011;43754;56.992;24.292;2022-07-22T01:00:54;10.88;;;8.02;;
57947;SDS011;43754;56.992;24.292;2022-07-22T01:03:27;11.18;;;7.65;;
57947;SDS011;43754;56.992;24.292;2022-07-22T01:05:59;13.18;;;7.65;;
57947;SDS011;43754;56.992;24.292;2022-07-22T01:08:31;9.43;;;7.93;;
57947;SDS011;43754;56.992;24.292;2022-07-22T01:11:08;12.80;;;7.65;;
57947;SDS011;43754;56.992;24.292;2022-07-22T01:13:42;9.20;;;7.10;;
57947;SDS011;43754;56.992;24.292;2022-07-22T01:16:16;9.40;;;8.30;;
57947;SDS011;43754;56.992;24.292;2022-07-22T01:18:50;13.18;;;7.85;;
57947;SDS011;43754;56.992;24.292;2022-07-22T01:21:23;8.80;;;7.60;;
57947;SDS011;43754;56.992;24.292;2022-07-22T01:23:56;12.02;;;8.23;;
57947;SDS011;43754;56.992;24.292;2022-07-22T01:26:28;9.88;;;8.40;;
57947;SDS011;43754;56.992;24.292;2022-07-22T01:29:00;13.52;;;7.40;;
57947;SDS011;43754;56.992;24.292;2022-07-22T01:31:33;15.68;;;8.63;;
57947;SDS011;43754;56.992;24.292;2022-07-22T01:34:05;15.40;;;8.25;;
57947;SDS011;43754;56.992;24.292;2022-07-22T01:36:41;9.55;;;8.02;;
57947;SDS011;43754;56.992;24.292;2022-07-22T01:39:13;11.70;;;8.18;;
57947;SDS011;43754;56.992;24.292;2022-07-22T01:41:46;11.55;;;8.25;;
57947;SDS011;43754;56.992;24.292;2022-07-22T01:44:18;11.98;;;7.80;;
57947;SDS011;43754;56.992;24.292;2022-07-22T01:46:50;8.80;;;6.78;;
57947;SDS011;43754;56.992;24.292;2022-07-22T01:49:22;11.18;;;7.70;;
57947;SDS011;43754;56.992;24.292;2022-07-22T01:51:57;12.40;;;8.40;;
57947;SDS011;43754;56.992;24.292;2022-07-22T01:54:29;8.95;;;6.95;;
57947;SDS011;43754;56.992;24.292;2022-07-22T01:57:02;8.80;;;6.68;;
57947;SDS011;43754;56.992;24.292;2022-07-22T01:59:35;8.77;;;6.97;;
57947;SDS011;43754;56.992;24.292;2022-07-22T02:02:07;12.20;;;7.18;;
57947;SDS011;43754;56.992;24.292;2022-07-22T02:04:39;8.23;;;7.35;;
57947;SDS011;43754;56.992;24.292;2022-07-22T02:07:13;8.73;;;7.82;;
57947;SDS011;43754;56.992;24.292;2022-07-22T02:09:46;13.25;;;8.00;;
57947;SDS011;43754;56.992;24.292;2022-07-22T02:12:18;8.05;;;7.25;;
57947;SDS011;43754;56.992;24.292;2022-07-22T02:14:50;10.73;;;7.30;;
57947;SDS011;43754;56.992;24.292;2022-07-22T02:17:22;11.60;;;7.20;;
57947;SDS011;43754;56.992;24.292;2022-07-22T02:19:55;7.97;;;7.07;;
57947;SDS011;43754;56.992;24.292;2022-07-22T02:22:28;11.02;;;7.65;;
57947;SDS011;43754;56.992;24.292;2022-07-22T02:25:00;7.75;;;6.82;;
57947;SDS011;43754;56.992;24.292;2022-07-22T02:27:34;8.77;;;6.80;;
57947;SDS011;43754;56.992;24.292;2022-07-22T02:30:06;8.93;;;7.60;;
57947;SDS011;43754;56.992;24.292;2022-07-22T02:32:40;9.50;;;7.13;;
57947;SDS011;43754;56.992;24.292;2022-07-22T02:35:12;10.07;;;7.25;;
57947;SDS011;43754;56.992;24.292;2022-07-22T02:37:46;8.30;;;6.72;;
57947;SDS011;43754;56.992;24.292;2022-07-22T02:40:18;10.27;;;6.85;;
57947;SDS011;43754;56.992;24.292;2022-07-22T02:42:51;9.95;;;6.95;;
57947;SDS011;43754;56.992;24.292;2022-07-22T02:45:24;10.80;;;7.18;;
57947;SDS011;43754;56.992;24.292;2022-07-22T02:47:57;8.23;;;7.40;;
57947;SDS011;43754;56.992;24.292;2022-07-22T02:50:30;8.80;;;7.07;;
57947;SDS011;43754;56.992;24.292;2022-07-22T02:53:05;7.57;;;6.50;;
57947;SDS011;43754;56.992;24.292;2022-07-22T02:55:42;8.50;;;6.93;;
57947;SDS011;43754;56.992;24.292;2022-07-22T02:58:14;8.05;;;7.00;;
57947;SDS011;43754;56.992;24.292;2022-07-22T03:00:48;10.35;;;6.93;;
57947;SDS011;43754;56.992;24.292;2022-07-22T03:03:21;8.63;;;7.05;;
57947;SDS011;43754;56.992;24.292;2022-07-22T03:05:53;12.02;;;6.85;;
57947;SDS011;43754;56.992;24.292;2022-07-22T03:08:38;10.57;;;7.57;;
57947;SDS011;43754;56.992;24.292;2022-07-22T03:11:10;8.90;;;6.63;;
57947;SDS011;43754;56.992;24.292;2022-07-22T03:13:43;8.45;;;6.93;;
57947;SDS011;43754;56.992;24.292;2022-07-22T03:16:15;8.68;;;6.63;;
57947;SDS011;43754;56.992;24.292;2022-07-22T03:18:47;7.90;;;6.90;;
57947;SDS011;43754;56.992;24.292;2022-07-22T03:21:20;14.80;;;7.28;;
57947;SDS011;43754;56.992;24.292;2022-07-22T03:23:56;8.63;;;6.40;;
57947;SDS011;43754;56.992;24.292;2022-07-22T03:26:29;11.80;;;7.53;;
57947;SDS011;43754;56.992;24.292;2022-07-22T03:29:01;9.00;;;7.03;;
57947;SDS011;43754;56.992;24.292;2022-07-22T03:31:33;9.52;;;7.03;;
57947;SDS011;43754;56.992;24.292;2022-07-22T03:34:05;11.02;;;7.65;;
57947;SDS011;43754;56.992;24.292;2022-07-22T03:36:41;11.35;;;7.53;;
57947;SDS011;43754;56.992;24.292;2022-07-22T03:39:15;10.50;;;7.68;;
57947;SDS011;43754;56.992;24.292;2022-07-22T03:41:47;8.82;;;7.57;;
57947;SDS011;43754;56.992;24.292;2022-07-22T03:44:20;9.60;;;7.80;;
57947;SDS011;43754;56.992;24.292;2022-07-22T03:46:53;9.05;;;7.00;;
57947;SDS011;43754;56.992;24.292;2022-07-22T03:49:25;10.07;;;7.05;;
57947;SDS011;43754;56.992;24.292;2022-07-22T03:52:00;9.15;;;7.22;;
57947;SDS011;43754;56.992;24.292;2022-07-22T03:54:34;11.85;;;6.53;;
57947;SDS011;43754;56.992;24.292;2022-07-22T03:57:06;9.25;;;6.88;;
57947;SDS011;43754;56.992;24.292;2022-07-22T03:59:38;8.35;;;6.93;;
57947;SDS011;43754;56.992;24.292;2022-07-22T04:02:10;11.45;;;6.47;;
57947;SDS011;43754;56.992;24.292;2022-07-22T04:04:42;7.97;;;6.07;;
57947;SDS011;43754;56.992;24.292;2022-07-22T04:07:15;11.02;;;6.78;;
57947;SDS011;43754;56.992;24.292;2022-07-22T04:09:48;8.00;;;6.40;;
57947;SDS011;43754;56.992;24.292;2022-07-22T04:12:20;12.35;;;6.93;;
57947;SDS011;43754;56.992;24.292;2022-07-22T04:15:11;7.35;;;5.88;;
57947;SDS011;43754;56.992;24.292;2022-07-22T04:17:43;7.75;;;6.45;;
57947;SDS011;43754;56.992;24.292;2022-07-22T04:20:16;7.88;;;5.65;;
57947;SDS011;43754;56.992;24.292;2022-07-22T04:23:15;8.37;;;5.83;;
57947;SDS011;43754;56.992;24.292;2022-07-22T04:25:55;15.07;;;5.45;;
57947;SDS011;43754;56.992;24.292;2022-07-22T04:28:28;11.27;;;6.25;;
57947;SDS011;43754;56.992;24.292;2022-07-22T04:31:00;7.78;;;5.07;;
57947;SDS011;43754;56.992;24.292;2022-07-22T04:33:33;9.32;;;5.68;;
57947;SDS011;43754;56.992;24.292;2022-07-22T04:36:06;9.07;;;5.68;;
57947;SDS011;43754;56.992;24.292;2022-07-22T04:38:39;11.27;;;5.45;;
57947;SDS011;43754;56.992;24.292;2022-07-22T04:41:15;11.55;;;5.22;;
57947;SDS011;43754;56.992;24.292;2022-07-22T04:43:51;6.25;;;4.97;;
57947;SDS011;43754;56.992;24.292;2022-07-22T04:46:27;6.97;;;4.95;;
57947;SDS011;43754;56.992;24.292;2022-07-22T04:49:01;5.90;;;4.82;;
57947;SDS011;43754;56.992;24.292;2022-07-22T04:51:33;6.90;;;5.03;;
57947;SDS011;43754;56.992;24.292;2022-07-22T04:54:09;9.63;;;5.25;;
57947;SDS011;43754;56.992;24.292;2022-07-22T04:56:46;7.40;;;4.93;;
57947;SDS011;43754;56.992;24.292;2022-07-22T04:59:18;7.28;;;4.82;;
57947;SDS011;43754;56.992;24.292;2022-07-22T05:01:51;8.57;;;5.30;;
57947;SDS011;43754;56.992;24.292;2022-07-22T05:04:24;7.93;;;4.95;;
57947;SDS011;43754;56.992;24.292;2022-07-22T05:06:56;9.75;;;4.53;;
57947;SDS011;43754;56.992;24.292;2022-07-22T05:09:28;8.80;;;4.70;;
57947;SDS011;43754;56.992;24.292;2022-07-22T05:12:04;7.57;;;4.55;;
57947;SDS011;43754;56.992;24.292;2022-07-22T05:14:39;6.85;;;4.75;;
57947;SDS011;43754;56.992;24.292;2022-07-22T05:17:11;8.65;;;4.50;;
57947;SDS011;43754;56.992;24.292;2022-07-22T05:20:02;7.13;;;4.88;;
57947;SDS011;43754;56.992;24.292;2022-07-22T05:22:36;6.63;;;4.10;;
57947;SDS011;43754;56.992;24.292;2022-07-22T05:25:13;8.85;;;4.72;;
57947;SDS011;43754;56.992;24.292;2022-07-22T05:27:51;14.18;;;8.38;;
57947;SDS011;43754;56.992;24.292;2022-07-22T05:30:35;13.55;;;6.85;;
57947;SDS011;43754;56.992;24.292;2022-07-22T05:33:08;7.20;;;4.28;;
57947;SDS011;43754;56.992;24.292;2022-07-22T05:35:59;7.53;;;4.40;;
57947;SDS011;43754;56.992;24.292;2022-07-22T05:38:38;6.72;;;4.22;;
57947;SDS011;43754;56.992;24.292;2022-07-22T05:41:11;3.90;;;3.50;;
57947;SDS011;43754;56.992;24.292;2022-07-22T05:43:45;9.98;;;3.90;;
57947;SDS011;43754;56.992;24.292;2022-07-22T05:46:18;6.60;;;3.67;;
57947;SDS011;43754;56.992;24.292;2022-07-22T05:48:52;8.07;;;4.03;;
57947;SDS011;43754;56.992;24.292;2022-07-22T05:51:25;5.10;;;3.78;;
57947;SDS011;43754;56.992;24.292;2022-07-22T05:53:58;10.32;;;3.97;;
57947;SDS011;43754;56.992;24.292;2022-07-22T05:56:30;15.57;;;4.32;;
57947;SDS011;43754;56.992;24.292;2022-07-22T05:59:03;12.25;;;4.35;;
57947;SDS011;43754;56.992;24.292;2022-07-22T06:01:36;7.72;;;3.92;;
57947;SDS011;43754;56.992;24.292;2022-07-22T06:04:24;9.57;;;3.78;;
57947;SDS011;43754;56.992;24.292;2022-07-22T06:06:57;4.80;;;3.63;;
57947;SDS011;43754;56.992;24.292;2022-07-22T06:09:29;6.50;;;3.78;;
57947;SDS011;43754;56.992;24.292;2022-07-22T06:12:01;12.55;;;3.63;;
57947;SDS011;43754;56.992;24.292;2022-07-22T06:14:36;12.13;;;3.70;;
57947;SDS011;43754;56.992;24.292;2022-07-22T06:17:08;6.30;;;3.45;;
57947;SDS011;43754;56.992;24.292;2022-07-22T06:19:42;6.88;;;3.40;;
57947;SDS011;43754;56.992;24.292;2022-07-22T06:22:14;5.50;;;3.00;;
57947;SDS011;43754;56.992;24.292;2022-07-22T06:24:49;7.68;;;3.58;;
57947;SDS011;43754;56.992;24.292;2022-07-22T06:27:21;6.68;;;3.08;;
57947;SDS011;43754;56.992;24.292;2022-07-22T06:29:57;6.78;;;3.38;;
57947;SDS011;43754;56.992;24.292;2022-07-22T06:32:30;20.10;;;3.45;;
57947;SDS011;43754;56.992;24.292;2022-07-22T06:35:02;9.48;;;3.42;;
57947;SDS011;43754;56.992;24.292;2022-07-22T06:37:34;8.45;;;3.22;;
57947;SDS011;43754;56.992;24.292;2022-07-22T06:40:28;8.05;;;3.40;;
57947;SDS011;43754;56.992;24.292;2022-07-22T06:43:24;9.40;;;3.63;;
57947;SDS011;43754;56.992;24.292;2022-07-22T06:46:29;6.60;;;3.58;;
57947;SDS011;43754;56.992;24.292;2022-07-22T06:49:02;4.35;;;2.92;;
57947;SDS011;43754;56.992;24.292;2022-07-22T06:51:37;4.78;;;3.10;;
57947;SDS011;43754;56.992;24.292;2022-07-22T06:54:10;9.55;;;3.33;;
57947;SDS011;43754;56.992;24.292;2022-07-22T06:56:42;3.65;;;2.80;;
57947;SDS011;43754;56.992;24.292;2022-07-22T06:59:20;8.95;;;3.13;;
57947;SDS011;43754;56.992;24.292;2022-07-22T07:01:53;8.57;;;3.08;;
57947;SDS011;43754;56.992;24.292;2022-07-22T07:04:28;8.15;;;3.17;;
57947;SDS011;43754;56.992;24.292;2022-07-22T07:07:00;13.38;;;3.05;;
57947;SDS011;43754;56.992;24.292;2022-07-22T07:09:36;6.28;;;2.60;;
57947;SDS011;43754;56.992;24.292;2022-07-22T07:12:23;6.00;;;2.80;;
57947;SDS011;43754;56.992;24.292;2022-07-22T07:15:25;7.13;;;2.97;;
57947;SDS011;43754;56.992;24.292;2022-07-22T07:18:09;4.60;;;2.90;;
57947;SDS011;43754;56.992;24.292;2022-07-22T07:20:42;5.60;;;3.10;;
57947;SDS011;43754;56.992;24.292;2022-07-22T07:23:14;8.27;;;3.22;;
57947;SDS011;43754;56.992;24.292;2022-07-22T07:25:49;11.43;;;3.25;;
57947;SDS011;43754;56.992;24.292;2022-07-22T07:28:21;8.63;;;3.25;;
57947;SDS011;43754;56.992;24.292;2022-07-22T07:30:58;9.93;;;2.95;;
57947;SDS011;43754;56.992;24.292;2022-07-22T07:33:32;7.05;;;3.15;;
57947;SDS011;43754;56.992;24.292;2022-07-22T07:36:06;7.43;;;3.50;;
57947;SDS011;43754;56.992;24.292;2022-07-22T07:38:43;9.50;;;3.17;;
57947;SDS011;43754;56.992;24.292;2022-07-22T07:41:19;11.38;;;3.08;;
57947;SDS011;43754;56.992;24.292;2022-07-22T07:43:54;7.15;;;3.30;;
57947;SDS011;43754;56.992;24.292;2022-07-22T07:46:26;12.13;;;3.22;;
57947;SDS011;43754;56.992;24.292;2022-07-22T07:49:02;7.20;;;3.08;;
57947;SDS011;43754;56.992;24.292;2022-07-22T07:51:35;9.00;;;2.65;;
57947;SDS011;43754;56.992;24.292;2022-07-22T07:54:08;10.80;;;3.17;;
57947;SDS011;43754;56.992;24.292;2022-07-22T07:56:42;12.35;;;3.72;;
57947;SDS011;43754;56.992;24.292;2022-07-22T07:59:15;13.25;;;3.50;;
57947;SDS011;43754;56.992;24.292;2022-07-22T08:04:39;6.80;;;2.47;;
57947;SDS011;43754;56.992;24.292;2022-07-22T08:07:22;9.77;;;2.83;;
57947;SDS011;43754;56.992;24.292;2022-07-22T08:09:54;10.88;;;3.03;;
57947;SDS011;43754;56.992;24.292;2022-07-22T08:13:15;11.85;;;2.83;;
57947;SDS011;43754;56.992;24.292;2022-07-22T08:16:07;11.73;;;2.88;;
57947;SDS011;43754;56.992;24.292;2022-07-22T08:18:41;14.18;;;2.78;;
57947;SDS011;43754;56.992;24.292;2022-07-22T08:21:16;9.93;;;3.00;;
57947;SDS011;43754;56.992;24.292;2022-07-22T08:24:08;12.95;;;2.70;;
57947;SDS011;43754;56.992;24.292;2022-07-22T08:26:41;11.32;;;3.05;;
57947;SDS011;43754;56.992;24.292;2022-07-22T08:29:13;11.73;;;3.03;;
57947;SDS011;43754;56.992;24.292;2022-07-22T08:31:45;6.78;;;3.20;;
57947;SDS011;43754;56.992;24.292;2022-07-22T08:34:20;12.40;;;2.70;;
57947;SDS011;43754;56.992;24.292;2022-07-22T08:36:54;10.82;;;3.10;;
57947;SDS011;43754;56.992;24.292;2022-07-22T08:39:27;9.60;;;2.95;;
57947;SDS011;43754;56.992;24.292;2022-07-22T08:41:59;6.57;;;2.95;;
57947;SDS011;43754;56.992;24.292;2022-07-22T08:44:32;6.55;;;2.83;;
57947;SDS011;43754;56.992;24.292;2022-07-22T08:47:04;9.95;;;2.63;;
57947;SDS011;43754;56.992;24.292;2022-07-22T08:50:12;9.32;;;2.63;;
57947;SDS011;43754;56.992;24.292;2022-07-22T08:53:09;14.45;;;3.20;;
57947;SDS011;43754;56.992;24.292;2022-07-22T08:55:47;4.95;;;2.70;;
57947;SDS011;43754;56.992;24.292;2022-07-22T08:58:20;8.60;;;2.80;;
57947;SDS011;43754;56.992;24.292;2022-07-22T09:01:06;7.93;;;3.43;;
57947;SDS011;43754;56.992;24.292;2022-07-22T09:03:47;11.55;;;3.65;;
57947;SDS011;43754;56.992;24.292;2022-07-22T09:06:22;14.63;;;3.30;;
57947;SDS011;43754;56.992;24.292;2022-07-22T09:09:00;10.10;;;2.50;;
57947;SDS011;43754;56.992;24.292;2022-07-22T09:12:05;13.23;;;2.83;;
57947;SDS011;43754;56.992;24.292;2022-07-22T09:14:48;9.02;;;3.08;;
57947;SDS011;43754;56.992;24.292;2022-07-22T09:18:00;11.63;;;2.85;;
57947;SDS011;43754;56.992;24.292;2022-07-22T09:20:48;11.10;;;3.03;;
57947;SDS011;43754;56.992;24.292;2022-07-22T09:23:49;10.80;;;2.90;;
57947;SDS011;43754;56.992;24.292;2022-07-22T09:26:32;8.73;;;3.03;;
57947;SDS011;43754;56.992;24.292;2022-07-22T09:29:29;9.77;;;3.00;;
57947;SDS011;43754;56.992;24.292;2022-07-22T09:32:21;8.35;;;3.00;;
57947;SDS011;43754;56.992;24.292;2022-07-22T09:35:01;13.45;;;2.55;;
57947;SDS011;43754;56.992;24.292;2022-07-22T09:37:47;12.70;;;2.90;;
57947;SDS011;43754;56.992;24.292;2022-07-22T09:40:24;15.95;;;3.00;;
57947;SDS011;43754;56.992;24.292;2022-07-22T09:43:00;13.18;;;3.13;;
57947;SDS011;43754;56.992;24.292;2022-07-22T09:45:34;8.27;;;2.40;;
57947;SDS011;43754;56.992;24.292;2022-07-22T09:48:06;8.80;;;2.50;;
57947;SDS011;43754;56.992;24.292;2022-07-22T09:51:00;15.65;;;3.47;;
57947;SDS011;43754;56.992;24.292;2022-07-22T09:54:01;15.38;;;3.00;;
57947;SDS011;43754;56.992;24.292;2022-07-22T09:56:36;13.70;;;3.22;;
57947;SDS011;43754;56.992;24.292;2022-07-22T09:59:10;10.30;;;2.88;;
57947;SDS011;43754;56.992;24.292;2022-07-22T10:01:47;9.60;;;3.03;;
57947;SDS011;43754;56.992;24.292;2022-07-22T10:04:23;18.17;;;3.10;;
57947;SDS011;43754;56.992;24.292;2022-07-22T10:06:56;12.48;;;3.83;;
57947;SDS011;43754;56.992;24.292;2022-07-22T10:09:35;11.13;;;3.38;;
57947;SDS011;43754;56.992;24.292;2022-07-22T10:12:10;13.55;;;3.08;;
57947;SDS011;43754;56.992;24.292;2022-07-22T10:14:45;8.85;;;2.65;;
57947;SDS011;43754;56.992;24.292;2022-07-22T10:17:18;13.10;;;3.00;;
57947;SDS011;43754;56.992;24.292;2022-07-22T10:19:51;8.88;;;2.70;;
57947;SDS011;43754;56.992;24.292;2022-07-22T10:25:31;10.32;;;3.10;;
57947;SDS011;43754;56.992;24.292;2022-07-22T10:28:05;9.10;;;2.67;;
57947;SDS011;43754;56.992;24.292;2022-07-22T10:30:38;12.65;;;3.03;;
57947;SDS011;43754;56.992;24.292;2022-07-22T10:33:12;6.97;;;3.17;;
57947;SDS011;43754;56.992;24.292;2022-07-22T10:35:53;10.88;;;3.42;;
57947;SDS011;43754;56.992;24.292;2022-07-22T10:38:28;3.65;;;2.20;;
57947;SDS011;43754;56.992;24.292;2022-07-22T10:41:01;10.90;;;2.42;;
57947;SDS011;43754;56.992;24.292;2022-07-22T10:43:45;6.93;;;2.42;;
57947;SDS011;43754;56.992;24.292;2022-07-22T10:46:22;7.45;;;2.22;;
57947;SDS011;43754;56.992;24.292;2022-07-22T10:49:20;10.38;;;3.35;;
57947;SDS011;43754;56.992;24.292;2022-07-22T10:52:10;8.70;;;2.83;;
57947;SDS011;43754;56.992;24.292;2022-07-22T10:57:47;12.25;;;2.70;;
57947;SDS011;43754;56.992;24.292;2022-07-22T11:00:20;10.55;;;2.80;;
57947;SDS011;43754;56.992;24.292;2022-07-22T11:02:54;8.45;;;2.58;;
57947;SDS011;43754;56.992;24.292;2022-07-22T11:05:26;7.30;;;2.45;;
57947;SDS011;43754;56.992;24.292;2022-07-22T11:08:00;6.78;;;2.40;;
57947;SDS011;43754;56.992;24.292;2022-07-22T11:10:46;8.63;;;2.92;;
57947;SDS011;43754;56.992;24.292;2022-07-22T11:13:30;6.82;;;2.22;;
57947;SDS011;43754;56.992;24.292;2022-07-22T11:16:14;5.45;;;2.20;;
57947;SDS011;43754;56.992;24.292;2022-07-22T11:18:53;8.52;;;2.95;;
57947;SDS011;43754;56.992;24.292;2022-07-22T11:21:28;5.72;;;2.47;;
57947;SDS011;43754;56.992;24.292;2022-07-22T11:24:02;6.55;;;2.22;;
57947;SDS011;43754;56.992;24.292;2022-07-22T11:26:38;6.82;;;2.28;;
57947;SDS011;43754;56.992;24.292;2022-07-22T11:29:15;8.32;;;2.50;;
57947;SDS011;43754;56.992;24.292;2022-07-22T11:31:48;8.63;;;2.60;;
57947;SDS011;43754;56.992;24.292;2022-07-22T11:34:22;7.70;;;3.13;;
57947;SDS011;43754;56.992;24.292;2022-07-22T11:36:55;5.70;;;2.70;;
57947;SDS011;43754;56.992;24.292;2022-07-22T11:39:29;7.40;;;3.30;;
57947;SDS011;43754;56.992;24.292;2022-07-22T11:42:02;5.88;;;2.80;;
57947;SDS011;43754;56.992;24.292;2022-07-22T11:44:35;10.27;;;3.40;;
57947;SDS011;43754;56.992;24.292;2022-07-22T11:47:09;8.73;;;2.80;;
57947;SDS011;43754;56.992;24.292;2022-07-22T11:49:46;8.38;;;2.53;;
57947;SDS011;43754;56.992;24.292;2022-07-22T11:52:21;12.45;;;2.70;;
57947;SDS011;43754;56.992;24.292;2022-07-22T11:54:53;5.65;;;2.58;;
57947;SDS011;43754;56.992;24.292;2022-07-22T11:57:25;12.32;;;2.88;;
57947;SDS011;43754;56.992;24.292;2022-07-22T12:00:05;11.10;;;3.30;;
57947;SDS011;43754;56.992;24.292;2022-07-22T12:02:42;17.05;;;3.08;;
57947;SDS011;43754;56.992;24.292;2022-07-22T12:05:16;11.45;;;2.85;;
57947;SDS011;43754;56.992;24.292;2022-07-22T12:08:04;13.50;;;3.00;;
57947;SDS011;43754;56.992;24.292;2022-07-22T12:10:37;12.93;;;2.80;;
57947;SDS011;43754;56.992;24.292;2022-07-22T12:13:10;10.65;;;3.03;;
57947;SDS011;43754;56.992;24.292;2022-07-22T12:15:43;7.57;;;3.03;;
57947;SDS011;43754;56.992;24.292;2022-07-22T12:18:18;14.07;;;2.90;;
57947;SDS011;43754;56.992;24.292;2022-07-22T12:20:54;15.88;;;2.55;;
57947;SDS011;43754;56.992;24.292;2022-07-22T12:23:27;6.88;;;2.67;;
57947;SDS011;43754;56.992;24.292;2022-07-22T12:25:59;9.07;;;3.00;;
57947;SDS011;43754;56.992;24.292;2022-07-22T12:28:32;9.75;;;2.70;;
57947;SDS011;43754;56.992;24.292;2022-07-22T12:31:04;4.50;;;2.65;;
57947;SDS011;43754;56.992;24.292;2022-07-22T12:33:37;8.02;;;2.65;;
57947;SDS011;43754;56.992;24.292;2022-07-22T12:36:19;8.40;;;2.53;;
57947;SDS011;43754;56.992;24.292;2022-07-22T12:38:51;7.45;;;2.60;;
57947;SDS011;43754;56.992;24.292;2022-07-22T12:41:24;9.23;;;2.53;;
57947;SDS011;43754;56.992;24.292;2022-07-22T12:43:57;9.98;;;2.55;;
57947;SDS011;43754;56.992;24.292;2022-07-22T12:46:31;11.27;;;2.42;;
57947;SDS011;43754;56.992;24.292;2022-07-22T12:49:03;10.57;;;2.75;;
57947;SDS011;43754;56.992;24.292;2022-07-22T12:51:37;8.02;;;2.33;;
57947;SDS011;43754;56.992;24.292;2022-07-22T12:54:09;5.18;;;2.45;;
57947;SDS011;43754;56.992;24.292;2022-07-22T12:56:41;7.60;;;2.67;;
57947;SDS011;43754;56.992;24.292;2022-07-22T12:59:13;10.80;;;2.40;;
57947;SDS011;43754;56.992;24.292;2022-07-22T13:01:45;15.57;;;2.90;;
57947;SDS011;43754;56.992;24.292;2022-07-22T13:04:20;9.20;;;2.90;;
57947;SDS011;43754;56.992;24.292;2022-07-22T13:06:53;11.55;;;3.15;;
57947;SDS011;43754;56.992;24.292;2022-07-22T13:09:26;6.85;;;2.72;;
57947;SDS011;43754;56.992;24.292;2022-07-22T13:11:58;14.05;;;2.88;;
57947;SDS011;43754;56.992;24.292;2022-07-22T13:14:30;6.28;;;2.42;;
57947;SDS011;43754;56.992;24.292;2022-07-22T13:17:05;8.68;;;2.83;;
57947;SDS011;43754;56.992;24.292;2022-07-22T13:19:38;8.55;;;2.80;;
57947;SDS011;43754;56.992;24.292;2022-07-22T13:22:11;14.32;;;4.13;;
57947;SDS011;43754;56.992;24.292;2022-07-22T13:24:43;7.18;;;2.97;;
57947;SDS011;43754;56.992;24.292;2022-07-22T13:27:15;11.02;;;2.90;;
57947;SDS011;43754;56.992;24.292;2022-07-22T13:29:48;10.95;;;3.38;;
57947;SDS011;43754;56.992;24.292;2022-07-22T13:32:21;9.50;;;3.03;;
57947;SDS011;43754;56.992;24.292;2022-07-22T13:35:13;8.93;;;3.15;;
57947;SDS011;43754;56.992;24.292;2022-07-22T13:37:46;4.90;;;2.42;;
57947;SDS011;43754;56.992;24.292;2022-07-22T13:40:18;13.50;;;2.53;;
57947;SDS011;43754;56.992;24.292;2022-07-22T13:42:51;8.43;;;2.80;;
57947;SDS011;43754;56.992;24.292;2022-07-22T13:45:23;6.97;;;2.88;;
57947;SDS011;43754;56.992;24.292;2022-07-22T13:47:55;14.98;;;2.85;;
57947;SDS011;43754;56.992;24.292;2022-07-22T13:50:27;10.13;;;3.58;;
57947;SDS011;43754;56.992;24.292;2022-07-22T13:53:00;15.77;;;3.00;;
57947;SDS011;43754;56.992;24.292;2022-07-22T13:55:32;5.45;;;2.80;;
57947;SDS011;43754;56.992;24.292;2022-07-22T13:58:05;11.25;;;3.25;;
57947;SDS011;43754;56.992;24.292;2022-07-22T14:00:37;9.90;;;3.10;;
57947;SDS011;43754;56.992;24.292;2022-07-22T14:03:11;8.82;;;3.10;;
57947;SDS011;43754;56.992;24.292;2022-07-22T14:05:43;14.63;;;2.85;;
57947;SDS011;43754;56.992;24.292;2022-07-22T14:08:17;13.82;;;3.15;;
57947;SDS011;43754;56.992;24.292;2022-07-22T14:10:49;7.18;;;3.15;;
57947;SDS011;43754;56.992;24.292;2022-07-22T14:13:21;10.77;;;3.08;;
57947;SDS011;43754;56.992;24.292;2022-07-22T14:15:53;12.80;;;2.92;;
57947;SDS011;43754;56.992;24.292;2022-07-22T14:18:25;10.02;;;2.78;;
57947;SDS011;43754;56.992;24.292;2022-07-22T14:20:57;15.70;;;3.05;;
57947;SDS011;43754;56.992;24.292;2022-07-22T14:23:31;16.15;;;3.17;;
57947;SDS011;43754;56.992;24.292;2022-07-22T14:26:03;9.13;;;3.15;;
57947;SDS011;43754;56.992;24.292;2022-07-22T14:28:35;7.93;;;3.05;;
57947;SDS011;43754;56.992;24.292;2022-07-22T14:31:07;9.70;;;3.33;;
57947;SDS011;43754;56.992;24.292;2022-07-22T14:33:39;8.23;;;3.13;;
57947;SDS011;43754;56.992;24.292;2022-07-22T14:36:11;9.48;;;2.83;;
57947;SDS011;43754;56.992;24.292;2022-07-22T14:38:45;14.30;;;3.45;;
57947;SDS011;43754;56.992;24.292;2022-07-22T14:41:17;12.95;;;3.53;;
57947;SDS011;43754;56.992;24.292;2022-07-22T14:43:49;6.90;;;2.85;;
57947;SDS011;43754;56.992;24.292;2022-07-22T14:46:21;11.23;;;3.55;;
57947;SDS011;43754;56.992;24.292;2022-07-22T14:48:53;15.43;;;3.20;;
57947;SDS011;43754;56.992;24.292;2022-07-22T14:51:25;12.00;;;3.05;;
57947;SDS011;43754;56.992;24.292;2022-07-22T14:53:59;8.43;;;3.15;;
57947;SDS011;43754;56.992;24.292;2022-07-22T14:56:32;12.45;;;3.42;;
57947;SDS011;43754;56.992;24.292;2022-07-22T14:59:04;16.00;;;3.53;;
57947;SDS011;43754;56.992;24.292;2022-07-22T15:01:36;5.20;;;3.38;;
57947;SDS011;43754;56.992;24.292;2022-07-22T15:04:08;7.72;;;3.00;;
57947;SDS011;43754;56.992;24.292;2022-07-22T15:06:40;10.70;;;3.05;;
57947;SDS011;43754;56.992;24.292;2022-07-22T15:09:14;7.28;;;3.10;;
57947;SDS011;43754;56.992;24.292;2022-07-22T15:11:46;6.95;;;2.90;;
57947;SDS011;43754;56.992;24.292;2022-07-22T15:14:18;6.85;;;3.28;;
57947;SDS011;43754;56.992;24.292;2022-07-22T15:16:50;13.45;;;3.33;;
57947;SDS011;43754;56.992;24.292;2022-07-22T15:19:23;8.02;;;3.00;;
57947;SDS011;43754;56.992;24.292;2022-07-22T15:21:57;10.10;;;2.50;;
57947;SDS011;43754;56.992;24.292;2022-07-22T15:24:31;7.82;;;2.80;;
57947;SDS011;43754;56.992;24.292;2022-07-22T15:27:03;8.68;;;3.15;;